Time;durP1;ratioP1;P1;durP2;ratioP2;P2;SDS_P1;SDS_P2;PMS_P1;PMS_P2;Temp;Humidity;BMP_temperature;BMP_pressure;BME280_temperature;BME280_humidity;BME280_pressure;Samples;Min_cycle;Max_cycle;Signal;HPM_P1;HPM_P2
2021/12/18 13:10:57;;;;;;;7.13;3.90;;;;;;;-142.75;100.00;79969.31;5065612;28;20424;-68
2021/12/18 13:13:25;;;;;;;6.73;3.80;;;;;;;-142.75;100.00;79967.34;5066738;28;20025;-69
2021/12/18 13:16:14;;;;;;;10.37;4.87;;;;;;;-142.75;100.00;79971.28;5066061;28;20086;-69
2021/12/18 13:18:45;;;;;;;6.67;3.93;;;;;;;-142.75;100.00;79957.50;5067001;28;20021;-69
2021/12/18 13:21:14;;;;;;;9.60;4.53;;;;;;;-142.75;100.00;79949.63;5085750;28;20020;-69
2021/12/18 13:23:46;;;;;;;10.17;4.50;;;;;;;-142.75;100.00;79951.59;5074735;28;20027;-70
2021/12/18 13:26:21;;;;;;;8.53;4.57;;;;;;;-142.75;100.00;79951.59;5065454;28;21104;-69
2021/12/18 13:28:50;;;;;;;10.13;3.53;;;;;;;-142.75;100.00;79941.75;5068960;28;20434;-69
2021/12/18 13:31:16;;;;;;;11.47;3.97;;;;;;;-142.75;100.00;79933.84;5085718;28;20030;-67
2021/12/18 13:33:42;;;;;;;5.63;3.83;;;;;;;-142.75;100.00;79922.03;5070470;28;20024;-67
2021/12/18 13:36:07;;;;;;;7.35;4.35;;;;;;;-142.75;100.00;79929.91;5065108;28;20020;-66
2021/12/18 13:38:36;;;;;;;11.52;3.97;;;;;;;-142.75;100.00;79924.00;5070784;28;20024;-69
2021/12/18 13:41:06;;;;;;;6.50;3.50;;;;;;;-142.75;100.00;79914.16;5085382;28;20103;-67
2021/12/18 13:43:32;;;;;;;7.50;4.33;;;;;;;-142.75;100.00;79902.34;5085032;28;20624;-67
2021/12/18 13:46:03;;;;;;;6.65;3.85;;;;;;;-142.75;100.00;79898.41;5078349;28;20107;-68
2021/12/18 13:48:35;;;;;;;5.97;3.97;;;;;;;-142.75;100.00;79902.34;5074486;28;20017;-67
2021/12/18 13:51:05;;;;;;;5.37;3.20;;;;;;;-142.75;100.00;79898.41;5068194;28;20028;-67
2021/12/18 13:53:31;;;;;;;4.37;2.60;;;;;;;-142.75;100.00;79896.44;5083458;28;20513;-67
2021/12/18 13:55:58;;;;;;;4.97;2.93;;;;;;;-142.75;100.00;79900.38;5084217;28;20028;-67
2021/12/18 13:58:30;;;;;;;4.47;2.73;;;;;;;-142.75;100.00;79912.19;5083299;28;20031;-67
2021/12/18 14:01:00;;;;;;;4.73;2.90;;;;;;;-142.75;100.00;79906.28;5063305;28;20113;-67
2021/12/18 14:03:34;;;;;;;4.67;3.23;;;;;;;-142.75;100.00;79894.47;5080467;28;20024;-67
2021/12/18 14:06:08;;;;;;;6.27;3.70;;;;;;;-142.75;100.00;79888.53;5074357;28;20090;-67
2021/12/18 14:08:38;;;;;;;6.73;3.30;;;;;;;-142.75;100.00;79882.63;5085583;28;20024;-67
2021/12/18 14:11:06;;;;;;;6.20;3.77;;;;;;;-142.75;100.00;79902.34;5080833;28;20020;-67
2021/12/18 14:13:42;;;;;;;8.30;4.00;;;;;;;-142.75;100.00;79890.50;5071219;28;20024;-68
2021/12/18 14:16:08;;;;;;;8.13;4.67;;;;;;;-142.75;100.00;79890.50;5065306;28;20029;-67
2021/12/18 14:18:39;;;;;;;6.82;3.95;;;;;;;-142.75;100.00;79894.47;5064338;28;20021;-68
2021/12/18 14:21:06;;;;;;;7.10;3.83;;;;;;;-142.75;100.00;79894.47;5075984;28;20111;-67
2021/12/18 14:23:38;;;;;;;5.53;3.77;;;;;;;-142.75;100.00;79886.56;5057865;28;20513;-67
2021/12/18 14:26:21;;;;;;;6.43;4.10;;;;;;;-142.75;100.00;79878.69;5070244;28;20020;-68
2021/12/18 14:28:49;;;;;;;7.10;4.30;;;;;;;-142.75;100.00;79874.75;5070270;28;20081;-68
2021/12/18 14:31:26;;;;;;;6.50;4.10;;;;;;;-142.75;100.00;79859.00;5071044;28;20029;-67
2021/12/18 14:34:00;;;;;;;5.30;3.07;;;;;;;-142.75;100.00;79884.59;5056045;28;20078;-69
2021/12/18 14:36:39;;;;;;;5.67;3.47;;;;;;;-142.75;100.00;79888.53;5051440;28;20032;-68
2021/12/18 14:39:04;;;;;;;5.70;3.33;;;;;;;-142.75;100.00;79884.59;5066327;28;20103;-67
2021/12/18 14:41:32;;;;;;;5.90;3.55;;;;;;;-142.75;100.00;79884.59;5059843;28;20029;-67
2021/12/18 14:44:01;;;;;;;5.50;3.70;;;;;;;-142.75;100.00;79888.53;5053959;28;20075;-68
2021/12/18 14:46:26;;;;;;;5.23;3.00;;;;;;;-142.75;100.00;79870.81;5057368;28;20033;-67
2021/12/18 14:48:51;;;;;;;5.47;3.75;;;;;;;-142.75;100.00;79862.94;5049853;28;20078;-69
2021/12/18 14:51:28;;;;;;;5.73;3.60;;;;;;;-142.75;100.00;79860.97;5070883;28;20024;-68
2021/12/18 14:53:57;;;;;;;;;;;;;;;-142.75;100.00;79864.91;5059116;28;20286;-66
2021/12/18 14:56:22;;;;;;;5.87;3.70;;;;;;;-142.75;100.00;79868.84;5050435;28;19919;-68
2021/12/18 14:58:50;;;;;;;8.98;3.40;;;;;;;-142.75;100.00;79864.91;5051246;28;20040;-67
2021/12/18 15:01:17;;;;;;;6.73;3.57;;;;;;;-142.75;100.00;79874.75;5053518;28;20094;-68
2021/12/18 15:03:48;;;;;;;5.33;3.20;;;;;;;-142.75;100.00;79880.66;5071183;28;20024;-69
2021/12/18 15:06:24;;;;;;;3.73;2.57;;;;;;;-142.75;100.00;79878.69;5052752;28;20491;-67
2021/12/18 15:09:09;;;;;;;3.55;2.25;;;;;;;-142.75;100.00;79884.59;5063852;28;20036;-67
2021/12/18 15:11:45;;;;;;;4.80;2.97;;;;;;;-142.75;100.00;79888.53;5063564;28;20067;-67
2021/12/18 15:14:20;;;;;;;4.20;2.63;;;;;;;-142.75;100.00;79902.34;5070203;28;20032;-67
2021/12/18 15:16:46;;;;;;;5.70;3.03;;;;;;;-142.75;100.00;79904.31;5058595;28;21028;-67
2021/12/18 15:19:13;;;;;;;5.17;3.10;;;;;;;-142.75;100.00;79906.28;5057825;28;20040;-67
2021/12/18 15:21:44;;;;;;;5.37;3.13;;;;;;;-142.75;100.00;79900.38;5050096;28;20177;-67
2021/12/18 15:24:11;;;;;;;5.70;3.10;;;;;;;-142.75;100.00;79892.50;5049603;28;20040;-66
2021/12/18 15:26:38;;;;;;;4.70;3.10;;;;;;;-142.75;100.00;79902.34;5062523;28;20050;-67
2021/12/18 15:29:05;;;;;;;6.37;3.83;;;;;;;-142.75;100.00;79902.34;5070417;28;20479;-67
2021/12/18 15:31:31;;;;;;;6.23;3.90;;;;;;;-142.75;100.00;79898.41;5055245;28;20033;-69
2021/12/18 15:33:57;;;;;;;6.97;4.03;;;;;;;-142.75;100.00;79890.50;5058117;28;20107;-68
2021/12/18 15:36:23;;;;;;;5.47;3.53;;;;;;;-142.75;100.00;79896.44;5059006;28;20437;-67
2021/12/18 15:38:49;;;;;;;5.43;3.33;;;;;;;-142.75;100.00;79894.47;5056106;28;20087;-67
2021/12/18 15:41:15;;;;;;;5.18;3.28;;;;;;;-142.75;100.00;79892.50;5066051;28;20398;-68
2021/12/18 15:43:41;;;;;;;;;;;;;;;-142.75;100.00;79888.53;5069420;28;20028;-67
2021/12/18 15:46:06;;;;;;;7.07;3.90;;;;;;;-142.75;100.00;79886.56;5069065;28;19923;-67
2021/12/18 15:48:32;;;;;;;6.28;4.03;;;;;;;-142.75;100.00;79910.22;5062067;28;20036;-70
2021/12/18 15:50:58;;;;;;;6.93;3.88;;;;;;;-142.75;100.00;79916.13;5069216;28;20055;-67
2021/12/18 15:53:23;;;;;;;8.30;5.57;;;;;;;-142.75;100.00;79914.16;5070483;28;20085;-67
2021/12/18 15:55:48;;;;;;;8.15;5.25;;;;;;;-142.75;100.00;79906.28;5065286;28;20454;-68
2021/12/18 15:58:14;;;;;;;9.70;5.57;;;;;;;-142.75;100.00;79910.22;5061237;28;20028;-68
2021/12/18 16:00:41;;;;;;;8.82;5.40;;;;;;;-142.75;100.00;79904.31;5061900;28;20021;-66
2021/12/18 16:03:07;;;;;;;11.03;6.33;;;;;;;-142.75;100.00;79906.28;5051538;28;20071;-69
2021/12/18 16:05:35;;;;;;;9.35;6.13;;;;;;;-142.75;100.00;79904.31;5050479;28;20123;-68
2021/12/18 16:08:01;;;;;;;10.83;6.27;;;;;;;-142.75;100.00;79902.34;5057997;28;20417;-65
2021/12/18 16:10:28;;;;;;;9.87;5.43;;;;;;;-142.75;100.00;79910.22;5048868;28;20455;-68
2021/12/18 16:12:54;;;;;;;9.43;5.70;;;;;;;-142.75;100.00;79922.03;5065011;28;20036;-68
2021/12/18 16:15:21;;;;;;;10.82;5.80;;;;;;;-142.75;100.00;79922.03;5069840;28;20490;-68
2021/12/18 16:17:46;;;;;;;11.23;6.63;;;;;;;-142.75;100.00;79918.09;5069683;28;20028;-69
2021/12/18 16:20:11;;;;;;;8.80;5.30;;;;;;;-142.75;100.00;79910.22;5050012;28;20087;-68
2021/12/18 16:22:38;;;;;;;10.40;6.25;;;;;;;-142.75;100.00;79914.16;5049594;28;20032;-67
2021/12/18 16:25:05;;;;;;;9.77;6.07;;;;;;;-142.75;100.00;79918.09;5050161;28;20031;-68
2021/12/18 16:27:31;;;;;;;11.67;6.23;;;;;;;-142.75;100.00;79933.84;5069822;28;20012;-70
2021/12/18 16:29:56;;;;;;;11.13;7.20;;;;;;;-142.75;100.00;79925.97;5068416;28;20470;-68
2021/12/18 16:32:22;;;;;;;9.40;5.67;;;;;;;-142.75;100.00;79929.91;5069525;28;20060;-68
2021/12/18 16:34:47;;;;;;;8.23;5.30;;;;;;;-142.75;100.00;79927.94;5068146;28;20308;-68
2021/12/18 16:37:13;;;;;;;8.77;5.70;;;;;;;-142.75;100.00;79935.84;5066514;28;20047;-67
2021/12/18 16:39:39;;;;;;;10.47;5.50;;;;;;;-142.75;100.00;79937.81;5066787;28;20094;-66
2021/12/18 16:42:06;;;;;;;9.30;5.18;;;;;;;-142.75;100.00;79939.78;5067294;28;20078;-65
2021/12/18 16:44:32;;;;;;;11.25;5.63;;;;;;;-142.75;100.00;79945.69;5066168;28;20021;-67
2021/12/18 16:46:58;;;;;;;11.17;5.57;;;;;;;-142.75;100.00;79949.63;5066667;28;20036;-67
2021/12/18 16:49:24;;;;;;;9.73;5.28;;;;;;;-142.75;100.00;79949.63;5066182;28;20371;-67
2021/12/18 16:51:49;;;;;;;9.48;4.93;;;;;;;-142.75;100.00;79949.63;5066028;28;20039;-67
2021/12/18 16:54:14;;;;;;;9.25;4.20;;;;;;;-142.75;100.00;79939.78;5063763;28;21844;-68
2021/12/18 16:56:40;;;;;;;9.93;4.78;;;;;;;-142.75;100.00;79937.81;5066488;28;20051;-69
2021/12/18 16:59:06;;;;;;;7.68;3.83;;;;;;;-142.75;100.00;79931.88;5067374;28;20291;-70
2021/12/18 17:01:32;;;;;;;9.73;4.70;;;;;;;-142.75;100.00;79931.88;5066044;28;20028;-70
2021/12/18 17:04:01;;;;;;;9.53;4.53;;;;;;;-142.75;100.00;79937.81;5065820;28;20024;-70
2021/12/18 17:06:27;;;;;;;10.53;4.57;;;;;;;-142.75;100.00;79933.84;5066576;28;20398;-69
2021/12/18 17:08:54;;;;;;;11.65;4.70;;;;;;;-142.75;100.00;79925.97;5066155;28;20021;-66
2021/12/18 17:11:19;;;;;;;11.97;5.10;;;;;;;-142.75;100.00;79927.94;5066953;28;20098;-68
2021/12/18 17:13:45;;;;;;;11.90;5.25;;;;;;;-142.75;100.00;79929.91;5067691;28;20029;-66
2021/12/18 17:16:10;;;;;;;12.30;5.82;;;;;;;-142.75;100.00;79918.09;5067681;28;20020;-68
2021/12/18 17:18:40;;;;;;;12.68;5.82;;;;;;;-142.75;100.00;79920.06;5067196;28;20036;-67
2021/12/18 17:21:11;;;;;;;15.27;6.63;;;;;;;-142.75;100.00;79920.06;5065723;28;20506;-69
2021/12/18 17:23:37;;;;;;;15.47;6.17;;;;;;;-142.75;100.00;79908.25;5067212;28;20047;-69
2021/12/18 17:26:02;;;;;;;16.17;7.28;;;;;;;-142.75;100.00;79908.25;5067511;28;20036;-70
2021/12/18 17:28:29;;;;;;;12.80;6.13;;;;;;;-142.75;100.00;79906.28;5067558;28;20024;-67
2021/12/18 17:30:55;;;;;;;14.97;7.07;;;;;;;-142.75;100.00;79908.25;5058983;28;20962;-67
2021/12/18 17:33:20;;;;;;;14.27;6.97;;;;;;;-142.75;100.00;79890.50;5067623;28;20158;-68
2021/12/18 17:35:48;;;;;;;14.77;7.00;;;;;;;-142.75;100.00;79884.59;5066397;28;20514;-69
2021/12/18 17:38:13;;;;;;;15.93;7.40;;;;;;;-142.75;100.00;79878.69;5066358;28;20025;-67
2021/12/18 17:40:38;;;;;;;16.83;8.07;;;;;;;-142.75;100.00;79888.53;5066358;28;20023;-67
2021/12/18 17:43:04;;;;;;;15.15;8.02;;;;;;;-142.75;100.00;79882.63;5066297;28;20025;-69
2021/12/18 17:45:29;;;;;;;18.83;8.40;;;;;;;-142.75;100.00;79874.75;5067037;28;20028;-68
2021/12/18 17:47:55;;;;;;;18.40;8.48;;;;;;;-142.75;100.00;79886.56;5067468;28;20355;-69
2021/12/18 17:50:21;;;;;;;;;;;;;;;-142.75;100.00;79880.66;5067492;28;20055;-68
2021/12/18 17:52:48;;;;;;;15.33;7.63;;;;;;;-142.75;100.00;79884.59;5068000;28;20437;-68
2021/12/18 17:55:14;;;;;;;20.52;8.48;;;;;;;-142.75;100.00;79878.69;5067771;28;20107;-68
2021/12/18 17:57:40;;;;;;;16.40;8.17;;;;;;;-142.75;100.00;79884.59;5071505;28;20020;-68
2021/12/18 18:00:09;;;;;;;22.38;9.68;;;;;;;-142.75;100.00;79878.69;5070777;28;20020;-69
2021/12/18 18:02:35;;;;;;;19.70;8.83;;;;;;;-142.75;100.00;79896.44;5071793;28;20040;-68
2021/12/18 18:05:01;;;;;;;20.25;9.45;;;;;;;-142.75;100.00;79888.53;5071362;28;20021;-67
2021/12/18 18:07:27;;;;;;;23.45;10.13;;;;;;;-142.75;100.00;79882.63;5070270;28;20374;-67
2021/12/18 18:10:00;;;;;;;23.65;10.18;;;;;;;-142.75;100.00;79878.69;5070303;28;20385;-68
2021/12/18 18:12:27;;;;;;;25.00;11.10;;;;;;;-142.75;100.00;79862.94;5071001;28;20024;-67
2021/12/18 18:14:52;;;;;;;21.80;11.60;;;;;;;-142.75;100.00;79862.94;5071023;28;20054;-68
2021/12/18 18:17:17;;;;;;;31.47;13.43;;;;;;;-142.75;100.00;79855.06;5070299;28;20113;-68
2021/12/18 18:19:42;;;;;;;25.20;12.85;;;;;;;-142.75;100.00;79853.09;5070060;28;20281;-68
2021/12/18 18:22:08;;;;;;;24.70;12.52;;;;;;;-142.75;100.00;79847.19;5069991;28;20035;-68
2021/12/18 18:24:33;;;;;;;27.50;12.13;;;;;;;-142.75;100.00;79855.06;5069967;28;20221;-68
2021/12/18 18:26:58;;;;;;;30.45;13.27;;;;;;;-142.75;100.00;79855.06;5070822;28;20263;-67
2021/12/18 18:29:24;;;;;;;28.45;13.57;;;;;;;-142.75;100.00;79862.94;5071409;28;20028;-68
2021/12/18 18:31:49;;;;;;;32.30;15.43;;;;;;;-142.75;100.00;79868.84;5068469;28;20035;-65
2021/12/18 18:34:14;;;;;;;30.70;14.23;;;;;;;-142.75;100.00;79860.97;5069589;28;20029;-66
2021/12/18 18:36:42;;;;;;;29.27;13.30;;;;;;;-142.75;100.00;79862.94;5070230;28;20449;-67
2021/12/18 18:39:07;;;;;;;31.30;14.23;;;;;;;-142.75;100.00;79847.19;5070804;28;20021;-67
2021/12/18 18:41:34;;;;;;;28.90;13.77;;;;;;;-142.75;100.00;79847.19;5069170;28;20371;-66
2021/12/18 18:44:00;;;;;;;35.93;14.17;;;;;;;-142.75;100.00;79851.13;5070455;28;20028;-67
2021/12/18 18:46:36;;;;;;;33.10;14.00;;;;;;;-142.75;100.00;79845.22;5052367;28;20096;-67
2021/12/18 18:49:02;;;;;;;31.48;13.88;;;;;;;-142.75;100.00;79843.22;5049128;28;20028;-68
2021/12/18 18:51:29;;;;;;;34.03;12.40;;;;;;;-142.75;100.00;79855.06;5049929;28;20025;-67
2021/12/18 18:53:57;;;;;;;35.08;15.70;;;;;;;-142.75;100.00;79843.22;5050280;28;20632;-66
2021/12/18 18:56:23;;;;;;;34.20;14.38;;;;;;;-142.75;100.00;79831.41;5050615;28;20029;-67
2021/12/18 18:58:49;;;;;;;34.83;14.25;;;;;;;-142.75;100.00;79831.41;5054647;28;20085;-67
2021/12/18 19:01:15;;;;;;;34.55;15.65;;;;;;;-142.75;100.00;79829.44;5069749;28;20093;-67
2021/12/18 19:03:40;;;;;;;37.40;14.60;;;;;;;-142.75;100.00;79823.53;5070132;28;20032;-66
2021/12/18 19:06:05;;;;;;;28.75;13.20;;;;;;;-142.75;100.00;79825.50;5070344;28;20056;-67
2021/12/18 19:08:32;;;;;;;32.05;14.10;;;;;;;-142.75;100.00;79819.59;5070339;28;20085;-65
2021/12/18 19:10:58;;;;;;;35.65;14.05;;;;;;;-142.75;100.00;79817.63;5067643;28;20019;-66
2021/12/18 19:13:24;;;;;;;34.75;14.20;;;;;;;-142.75;100.00;79815.66;5070576;28;20131;-69
2021/12/18 19:15:51;;;;;;;31.05;13.52;;;;;;;-142.75;100.00;79813.69;5070216;28;20099;-70
2021/12/18 19:18:18;;;;;;;37.27;14.97;;;;;;;-142.75;100.00;79815.66;5070068;28;20085;-70
2021/12/18 19:20:45;;;;;;;40.83;15.80;;;;;;;-142.75;100.00;79815.66;5069350;28;20032;-70
2021/12/18 19:23:11;;;;;;;34.20;14.40;;;;;;;-142.75;100.00;79815.66;5069899;28;20627;-68
2021/12/18 19:25:37;;;;;;;34.20;14.30;;;;;;;-142.75;100.00;79813.69;5054998;28;20352;-65
2021/12/18 19:28:03;;;;;;;37.20;15.63;;;;;;;-142.75;100.00;79805.81;5065509;28;20069;-66
2021/12/18 19:30:30;;;;;;;43.90;16.40;;;;;;;-142.75;100.00;79795.94;5068109;28;20020;-67
2021/12/18 19:32:57;;;;;;;41.17;15.35;;;;;;;-142.75;100.00;79799.91;5068016;28;20152;-67
2021/12/18 19:35:32;;;;;;;41.50;15.45;;;;;;;-142.75;100.00;79801.88;5057986;28;20032;-67
2021/12/18 19:38:00;;;;;;;39.03;15.13;;;;;;;-142.75;100.00;79805.81;5048171;28;20060;-67
2021/12/18 19:40:26;;;;;;;40.53;17.33;;;;;;;-142.75;100.00;79803.84;5061428;28;20497;-66
2021/12/18 19:42:52;;;;;;;45.28;18.02;;;;;;;-142.75;100.00;79799.91;5060379;28;20025;-66
2021/12/18 19:45:19;;;;;;;50.40;18.63;;;;;;;-142.75;100.00;79799.91;5048618;28;20043;-67
2021/12/18 19:47:44;;;;;;;46.05;19.52;;;;;;;-142.75;100.00;79792.00;5048214;28;20037;-67
2021/12/18 19:50:12;;;;;;;52.00;20.00;;;;;;;-142.75;100.00;79784.13;5055544;28;20027;-68
2021/12/18 19:52:38;;;;;;;47.53;19.25;;;;;;;-142.75;100.00;79786.09;5067392;28;20120;-68
2021/12/18 19:55:05;;;;;;;54.72;19.23;;;;;;;-142.75;100.00;79790.03;5048182;28;20542;-67
2021/12/18 19:57:30;;;;;;;51.25;19.48;;;;;;;-142.75;100.00;79788.06;5049474;28;20494;-68
2021/12/18 19:59:56;;;;;;;51.10;17.85;;;;;;;-142.75;100.00;79788.06;5046959;28;20037;-68
2021/12/18 20:04:57;;;;;;;51.22;19.08;;;;;;;-142.75;100.00;79784.13;5049243;28;20068;-67
2021/12/18 20:07:23;;;;;;;55.67;19.08;;;;;;;-142.75;100.00;79782.16;5048323;28;20032;-67
2021/12/18 20:09:49;;;;;;;52.40;20.25;;;;;;;-142.75;100.00;79778.22;5048296;28;20478;-67
2021/12/18 20:12:16;;;;;;;57.05;20.27;;;;;;;-142.75;100.00;79784.13;5047796;28;20036;-67
2021/12/18 20:14:41;;;;;;;54.35;19.42;;;;;;;-142.75;100.00;79776.25;5049131;28;20029;-67
2021/12/18 20:17:07;;;;;;;60.65;22.30;;;;;;;-142.75;100.00;79768.38;5052392;28;20023;-69
2021/12/18 20:19:33;;;;;;;60.53;23.40;;;;;;;-142.75;100.00;79764.44;5067267;28;20056;-66
2021/12/18 20:21:59;;;;;;;66.03;26.23;;;;;;;-142.75;100.00;79772.31;5068059;28;20024;-67
2021/12/18 20:24:24;;;;;;;;;;;;;;;-142.75;100.00;79768.38;5069733;28;20747;-67
2021/12/18 20:26:53;;;;;;;59.28;21.10;;;;;;;-142.75;100.00;79756.56;5068855;28;19916;-68
2021/12/18 20:29:19;;;;;;;56.50;20.45;;;;;;;-142.75;100.00;79764.44;5059744;28;21374;-67
2021/12/18 20:31:44;;;;;;;;;;;;;;;-142.75;100.00;79762.47;5068563;28;20033;-68
2021/12/18 20:34:12;;;;;;;59.42;18.42;;;;;;;-142.75;100.00;79760.50;5067432;28;19916;-67
2021/12/18 20:36:38;;;;;;;50.93;18.90;;;;;;;-142.75;100.00;79752.63;5066919;28;20485;-67
2021/12/18 20:39:03;;;;;;;51.28;18.70;;;;;;;-142.75;100.00;79756.56;5066233;28;20107;-67
2021/12/18 20:41:29;;;;;;;53.00;17.52;;;;;;;-142.75;100.00;79746.69;5066505;28;20486;-68
2021/12/18 20:43:55;;;;;;;47.28;17.15;;;;;;;-142.75;100.00;79752.63;5068067;28;20028;-68
2021/12/18 20:46:23;;;;;;;38.58;14.60;;;;;;;-142.75;100.00;79756.56;5069253;28;20040;-68
2021/12/18 20:48:49;;;;;;;51.63;17.95;;;;;;;-142.75;100.00;79760.50;5068022;28;20024;-67
2021/12/18 20:51:15;;;;;;;44.25;15.60;;;;;;;-142.75;100.00;79758.53;5066523;28;20512;-67
2021/12/18 20:53:40;;;;;;;49.45;16.20;;;;;;;-142.75;100.00;79752.63;5057581;28;20649;-67
2021/12/18 20:56:06;;;;;;;46.22;15.93;;;;;;;-142.75;100.00;79748.66;5049180;28;20052;-67
2021/12/18 20:58:32;;;;;;;37.58;13.32;;;;;;;-142.75;100.00;79750.66;5047370;28;20033;-69
2021/12/18 21:01:04;;;;;;;42.08;12.68;;;;;;;-142.75;100.00;79760.50;5048311;28;20055;-67
2021/12/18 21:03:30;;;;;;;40.47;13.07;;;;;;;-142.75;100.00;79754.59;5052982;28;20021;-67
2021/12/18 21:05:55;;;;;;;37.20;13.18;;;;;;;-142.75;100.00;79746.69;5061237;28;20391;-68
2021/12/18 21:08:21;;;;;;;39.35;13.75;;;;;;;-142.75;100.00;79748.66;5048766;28;20033;-67
2021/12/18 21:10:50;;;;;;;36.28;13.00;;;;;;;-142.75;100.00;79744.72;5047942;28;20036;-67
2021/12/18 21:13:15;;;;;;;31.77;12.65;;;;;;;-142.75;100.00;79736.84;5049836;28;20036;-67
2021/12/18 21:15:43;;;;;;;35.45;13.45;;;;;;;-142.75;100.00;79736.84;5049939;28;20021;-67
2021/12/18 21:18:10;;;;;;;37.03;13.82;;;;;;;-142.75;100.00;79742.75;5065468;28;20055;-67
2021/12/18 21:20:37;;;;;;;41.13;13.20;;;;;;;-142.75;100.00;79744.72;5066299;28;20031;-68
2021/12/18 21:23:02;;;;;;;35.80;13.38;;;;;;;-142.75;100.00;79742.75;5065504;28;20012;-67
2021/12/18 21:25:29;;;;;;;36.90;13.73;;;;;;;-142.75;100.00;79740.78;5066879;28;20474;-67
2021/12/18 21:27:55;;;;;;;33.53;13.57;;;;;;;-142.75;100.00;79744.72;5066232;28;20043;-65
2021/12/18 21:30:21;;;;;;;34.17;13.63;;;;;;;-142.75;100.00;79744.72;5066240;28;20024;-67
2021/12/18 21:32:48;;;;;;;33.17;13.85;;;;;;;-142.75;100.00;79740.78;5071767;28;20036;-68
2021/12/18 21:38:01;;;;;;;30.80;13.30;;;;;;;-142.75;100.00;79742.75;5071800;28;20055;-67
2021/12/18 21:40:27;;;;;;;25.38;11.98;;;;;;;-142.75;100.00;79744.72;5071248;28;20082;-67
2021/12/18 21:42:57;;;;;;;23.08;11.73;;;;;;;-142.75;100.00;79746.69;5071611;28;20020;-63
2021/12/18 21:45:23;;;;;;;21.60;10.77;;;;;;;-142.75;100.00;79754.59;5072035;28;20025;-66
2021/12/18 21:47:48;;;;;;;;;;;;;;;-142.75;100.00;79752.63;5064641;28;20032;-67
2021/12/18 21:50:15;;;;;;;21.40;11.47;;;;;;;-142.75;100.00;79752.63;5068567;28;19916;-68
2021/12/18 21:52:41;;;;;;;29.35;14.30;;;;;;;-142.75;100.00;79744.72;5071665;28;20040;-68
2021/12/18 21:55:07;;;;;;;30.60;14.10;;;;;;;-142.75;100.00;79752.63;5071390;28;20064;-68
2021/12/18 21:57:33;;;;;;;32.80;15.20;;;;;;;-142.75;100.00;79748.66;5071733;28;20048;-68
2021/12/18 21:59:58;;;;;;;33.60;15.30;;;;;;;-142.75;100.00;79756.56;5070534;28;20300;-68
2021/12/18 22:02:24;;;;;;;36.30;15.52;;;;;;;-142.75;100.00;79760.50;5071721;28;20024;-68
2021/12/18 22:04:49;;;;;;;36.85;16.73;;;;;;;-142.75;100.00;79754.59;5071429;28;20032;-67
2021/12/18 22:07:15;;;;;;;41.53;16.90;;;;;;;-142.75;100.00;79746.69;5071196;28;20091;-69
2021/12/18 22:09:40;;;;;;;46.10;17.98;;;;;;;-142.75;100.00;79740.78;5070229;28;20024;-65
2021/12/18 22:12:06;;;;;;;45.47;17.55;;;;;;;-142.75;100.00;79748.66;5071367;28;20036;-68
2021/12/18 22:14:32;;;;;;;;;;;;;;;-142.75;100.00;79748.66;5072021;28;20398;-68
2021/12/18 22:16:58;;;;;;;48.53;19.38;;;;;;;-142.75;100.00;79732.91;5070754;28;19928;-67
2021/12/18 22:19:25;;;;;;;46.28;19.80;;;;;;;-142.75;100.00;79744.72;5061807;28;20501;-68
2021/12/18 22:21:54;;;;;;;56.53;20.38;;;;;;;-142.75;100.00;79738.81;5070046;28;20036;-67
2021/12/18 22:24:20;;;;;;;52.65;21.90;;;;;;;-142.75;100.00;79736.84;5071095;28;20360;-69
2021/12/18 22:26:46;;;;;;;48.08;18.38;;;;;;;-142.75;100.00;79736.84;5071117;28;20036;-67
2021/12/18 22:29:14;;;;;;;51.60;18.05;;;;;;;-142.75;100.00;79742.75;5070799;28;20040;-67
2021/12/18 22:31:40;;;;;;;45.63;16.17;;;;;;;-142.75;100.00;79738.81;5048972;28;20044;-68
2021/12/18 22:34:05;;;;;;;41.10;15.68;;;;;;;-142.75;100.00;79750.66;5050846;28;20616;-67
2021/12/18 22:36:31;;;;;;;44.88;16.30;;;;;;;-142.75;100.00;79748.66;5049856;28;20044;-69
2021/12/18 22:38:57;;;;;;;47.50;16.55;;;;;;;-142.75;100.00;79748.66;5050287;28;20040;-67
2021/12/18 22:41:22;;;;;;;;;;;;;;;-142.75;100.00;79746.69;5050474;28;20497;-67
2021/12/18 22:43:47;;;;;;;45.03;16.83;;;;;;;-142.75;100.00;79748.66;5050702;28;20003;-68
2021/12/18 22:46:13;;;;;;;43.60;17.17;;;;;;;-142.75;100.00;79764.44;5050568;28;20032;-67
2021/12/18 22:48:39;;;;;;;51.03;15.88;;;;;;;-142.75;100.00;79756.56;5050691;28;20116;-68
2021/12/18 22:51:05;;;;;;;38.90;14.15;;;;;;;-142.75;100.00;79760.50;5049728;28;20017;-68
2021/12/18 22:53:31;;;;;;;36.08;14.05;;;;;;;-142.75;100.00;79756.56;5049307;28;20178;-71
2021/12/18 22:55:56;;;;;;;44.92;14.00;;;;;;;-142.75;100.00;79746.69;5056117;28;20522;-67
2021/12/18 22:58:22;;;;;;;33.83;13.85;;;;;;;-142.75;100.00;79758.53;5069403;28;20024;-67
2021/12/18 23:00:47;;;;;;;30.45;12.05;;;;;;;-142.75;100.00;79768.38;5068370;28;20154;-70
2021/12/18 23:03:13;;;;;;;24.00;11.17;;;;;;;-142.75;100.00;79778.22;5069086;28;20024;-68
2021/12/18 23:05:38;;;;;;;25.80;12.18;;;;;;;-142.75;100.00;79772.31;5070327;28;20298;-67
2021/12/18 23:08:06;;;;;;;22.95;11.43;;;;;;;-142.75;100.00;79772.31;5070232;28;20105;-66
2021/12/18 23:10:32;;;;;;;27.57;12.07;;;;;;;-142.75;100.00;79768.38;5069335;28;20028;-70
2021/12/18 23:15:40;;;;;;;31.47;13.47;;;;;;;-142.75;100.00;79770.34;5048930;28;20122;-67
2021/12/18 23:18:19;;;;;;;35.78;14.05;;;;;;;-142.75;100.00;79768.38;5067324;28;20039;-68
2021/12/18 23:20:46;;;;;;;31.43;14.40;;;;;;;-142.75;100.00;79768.38;5049360;28;20025;-68
2021/12/18 23:23:13;;;;;;;29.87;12.80;;;;;;;-142.75;100.00;79768.38;5049551;28;20123;-67
2021/12/18 23:25:39;;;;;;;29.70;13.02;;;;;;;-142.75;100.00;79764.44;5060656;28;20387;-67
2021/12/18 23:28:08;;;;;;;33.30;13.43;;;;;;;-142.75;100.00;79762.47;5069703;28;20039;-67
2021/12/18 23:30:34;;;;;;;31.13;11.82;;;;;;;-142.75;100.00;79768.38;5067621;28;20405;-68
2021/12/18 23:33:00;;;;;;;24.50;11.18;;;;;;;-142.75;100.00;79768.38;5069463;28;20047;-69
2021/12/18 23:35:26;;;;;;;36.17;11.37;;;;;;;-142.75;100.00;79768.38;5053147;28;20028;-67
2021/12/18 23:37:51;;;;;;;31.00;12.88;;;;;;;-142.75;100.00;79774.28;5046995;28;20021;-70
2021/12/18 23:40:20;;;;;;;28.42;11.00;;;;;;;-142.75;100.00;79764.44;5047910;28;20013;-67
2021/12/18 23:42:53;;;;;;;28.80;11.73;;;;;;;-142.75;100.00;79766.41;5050020;28;20025;-67
2021/12/18 23:48:03;;;;;;;21.00;9.90;;;;;;;-142.75;100.00;79788.06;5069645;28;20039;-68
2021/12/18 23:50:29;;;;;;;19.02;8.88;;;;;;;-142.75;100.00;79774.28;5068742;28;20020;-68
2021/12/18 23:52:55;;;;;;;22.20;8.40;;;;;;;-142.75;100.00;79768.38;5068442;28;21050;-67
2021/12/18 23:55:20;;;;;;;18.58;8.20;;;;;;;-142.75;100.00;79780.19;5065931;28;20024;-67
2021/12/18 23:57:45;;;;;;;25.73;9.75;;;;;;;-142.75;100.00;79780.19;5047501;28;20480;-67
